Time;durP1;ratioP1;P1;durP2;ratioP2;P2;SDS_P1;SDS_P2;PMS_P1;PMS_P2;Temp;Humidity;BMP_temperature;BMP_pressure;BME280_temperature;BME280_humidity;BME280_pressure;Samples;Min_cycle;Max_cycle;Signal;HPM_P1;HPM_P2
2023/01/27 00:00:40;;;;;;;39.88;13.95;;;1.50;99.90;;;;;;5065124;28;20120;-77
2023/01/27 00:03:09;;;;;;;41.20;13.57;;;1.50;99.90;;;;;;5034989;28;20128;-77
2023/01/27 00:05:35;;;;;;;37.13;12.05;;;1.40;99.90;;;;;;5051707;28;20130;-78
2023/01/27 00:08:00;;;;;;;40.65;13.43;;;1.50;99.90;;;;;;5052135;28;20637;-77
2023/01/27 00:10:26;;;;;;;51.38;15.55;;;1.60;99.90;;;;;;5017000;28;20405;-77
2023/01/27 00:15:36;;;;;;;45.10;13.05;;;1.50;99.90;;;;;;5056383;28;20059;-76
2023/01/27 00:18:02;;;;;;;84.65;17.08;;;1.50;99.90;;;;;;5028621;28;20140;-77
2023/01/27 00:26:07;;;;;;;44.67;13.57;;;1.50;99.90;;;;;;5050901;28;20075;-77
2023/01/27 00:28:36;;;;;;;67.45;16.70;;;1.50;99.90;;;;;;5085266;28;20169;-77
2023/01/27 00:31:02;;;;;;;50.42;14.68;;;1.50;99.90;;;;;;5045975;28;20048;-76
2023/01/27 00:33:28;;;;;;;58.05;16.52;;;1.60;99.90;;;;;;5047859;28;20044;-77
2023/01/27 00:36:00;;;;;;;58.22;16.67;;;1.50;99.90;;;;;;5061739;28;20099;-77
2023/01/27 00:38:30;;;;;;;81.35;18.38;;;1.60;99.90;;;;;;5062224;28;20041;-77
2023/01/27 00:41:18;;;;;;;41.90;14.57;;;1.60;99.90;;;;;;5051837;28;20049;-77
2023/01/27 00:43:44;;;;;;;54.45;16.00;;;1.50;99.90;;;;;;5064862;28;20627;-77
2023/01/27 00:46:11;;;;;;;68.88;17.60;;;1.60;99.90;;;;;;5032875;28;20110;-77
2023/01/27 00:48:37;;;;;;;58.47;17.63;;;1.60;99.90;;;;;;5024654;28;20045;-77
2023/01/27 00:51:03;;;;;;;53.05;14.77;;;1.60;99.90;;;;;;5036828;28;20342;-77
2023/01/27 00:53:29;;;;;;;71.82;16.70;;;1.50;99.90;;;;;;5054536;28;20159;-77
2023/01/27 00:55:57;;;;;;;42.88;14.18;;;1.60;99.90;;;;;;5031676;28;20053;-77
2023/01/27 00:58:23;;;;;;;54.35;15.63;;;1.60;99.90;;;;;;5054600;28;20053;-77
2023/01/27 01:00:51;;;;;;;58.13;17.17;;;1.60;99.90;;;;;;5026147;28;20045;-77
2023/01/27 01:03:17;;;;;;;63.28;17.50;;;1.60;99.90;;;;;;5035143;28;20130;-77
2023/01/27 01:05:43;;;;;;;42.70;14.45;;;1.60;99.90;;;;;;5032497;28;20053;-77
2023/01/27 01:08:09;;;;;;;44.45;15.57;;;1.60;99.90;;;;;;5078365;28;20056;-77
2023/01/27 01:10:37;;;;;;;45.30;15.35;;;1.60;99.90;;;;;;5032097;28;20458;-77
2023/01/27 01:13:02;;;;;;;46.65;14.48;;;1.60;99.90;;;;;;5048587;28;20205;-77
2023/01/27 01:15:28;;;;;;;38.97;13.70;;;1.70;99.90;;;;;;5054059;28;20140;-77
2023/01/27 01:17:54;;;;;;;55.95;16.25;;;1.60;99.90;;;;;;5055067;28;20071;-77
2023/01/27 01:20:20;;;;;;;50.50;14.60;;;1.70;99.90;;;;;;5058375;28;20052;-77
2023/01/27 01:22:45;;;;;;;45.28;15.60;;;1.70;99.90;;;;;;5078973;28;20044;-77
2023/01/27 01:25:11;;;;;;;51.88;15.60;;;1.60;99.90;;;;;;5033381;28;20331;-77
2023/01/27 01:27:37;;;;;;;45.90;14.70;;;1.60;99.90;;;;;;5038140;28;20142;-77
2023/01/27 01:30:03;;;;;;;42.03;15.07;;;1.60;99.90;;;;;;5069751;28;20037;-77
2023/01/27 01:32:29;;;;;;;54.20;16.98;;;1.60;99.90;;;;;;5036829;28;20049;-77
2023/01/27 01:34:55;;;;;;;41.50;13.73;;;1.70;99.90;;;;;;5048040;28;20037;-77
2023/01/27 01:37:21;;;;;;;97.20;20.88;;;1.70;99.90;;;;;;5055091;28;20045;-77
2023/01/27 01:39:47;;;;;;;57.88;16.65;;;1.80;99.90;;;;;;5027850;28;20049;-77
2023/01/27 01:42:13;;;;;;;53.50;15.73;;;1.70;99.90;;;;;;5037717;28;20052;-77
2023/01/27 01:44:42;;;;;;;50.28;15.95;;;1.70;99.90;;;;;;5050818;28;20179;-77
2023/01/27 01:47:16;;;;;;;48.00;14.23;;;1.80;99.90;;;;;;5054302;28;20068;-77
2023/01/27 01:49:41;;;;;;;44.25;15.32;;;1.70;99.90;;;;;;5067255;28;20191;-77
2023/01/27 01:52:13;;;;;;;63.50;17.27;;;1.70;99.90;;;;;;5039212;28;20124;-77
2023/01/27 01:54:44;;;;;;;51.90;14.75;;;1.70;99.90;;;;;;5037754;28;20076;-77
2023/01/27 01:57:14;;;;;;;46.92;14.70;;;1.70;99.90;;;;;;5071655;28;20041;-77
2023/01/27 02:00:06;;;;;;;45.38;14.98;;;1.80;99.90;;;;;;5072405;28;20041;-78
2023/01/27 02:02:32;;;;;;;49.00;15.35;;;1.80;99.90;;;;;;5034702;28;20069;-77
2023/01/27 02:05:08;;;;;;;77.10;18.88;;;1.80;99.90;;;;;;5050959;28;20056;-77
2023/01/27 02:07:53;;;;;;;46.33;16.25;;;1.80;99.90;;;;;;5028170;28;20466;-77
2023/01/27 02:10:19;;;;;;;56.78;15.13;;;1.80;99.90;;;;;;5066128;28;20040;-78
2023/01/27 02:12:45;;;;;;;72.78;18.35;;;1.80;99.90;;;;;;5055888;28;20369;-77
2023/01/27 02:15:11;;;;;;;46.83;15.52;;;1.80;99.90;;;;;;5065100;28;20076;-78
2023/01/27 02:17:37;;;;;;;51.55;15.60;;;1.90;99.90;;;;;;5033112;28;20400;-78
2023/01/27 02:20:17;;;;;;;48.05;14.20;;;2.00;99.90;;;;;;5055925;28;20524;-78
2023/01/27 02:23:02;;;;;;;48.38;13.80;;;2.00;99.90;;;;;;5053378;28;20466;-77
2023/01/27 02:25:34;;;;;;;44.15;14.00;;;1.90;99.90;;;;;;5030782;28;20095;-77
2023/01/27 02:28:03;;;;;;;41.90;15.52;;;2.00;99.90;;;;;;5051378;28;20041;-77
2023/01/27 02:30:29;;;;;;;41.25;14.00;;;2.00;99.90;;;;;;5034985;28;20476;-77
2023/01/27 02:32:55;;;;;;;43.35;14.45;;;2.10;99.90;;;;;;5017342;28;20055;-78
2023/01/27 02:35:24;;;;;;;50.10;14.77;;;2.10;99.90;;;;;;5037254;28;20144;-77
2023/01/27 02:37:50;;;;;;;44.30;14.20;;;2.10;99.90;;;;;;5023472;28;20045;-77
2023/01/27 02:40:16;;;;;;;41.17;13.13;;;2.00;99.90;;;;;;5053332;28;20453;-77
2023/01/27 02:42:42;;;;;;;42.65;14.02;;;2.10;99.90;;;;;;5040409;28;20425;-77
2023/01/27 02:45:08;;;;;;;46.53;14.77;;;2.10;99.90;;;;;;5045264;28;20044;-77
2023/01/27 02:47:34;;;;;;;36.67;13.82;;;2.10;99.90;;;;;;4997995;28;20528;-77
2023/01/27 02:50:00;;;;;;;39.90;13.43;;;2.10;99.90;;;;;;5045865;28;20044;-77
2023/01/27 02:52:25;;;;;;;48.25;14.32;;;2.20;99.90;;;;;;5042859;28;20041;-77
2023/01/27 02:54:51;;;;;;;48.83;15.80;;;2.20;99.90;;;;;;5051803;28;20517;-77
2023/01/27 02:57:17;;;;;;;49.83;14.55;;;2.10;99.90;;;;;;5077101;28;20045;-77
2023/01/27 02:59:43;;;;;;;38.38;13.52;;;2.00;99.90;;;;;;5061329;28;20045;-76
2023/01/27 03:02:13;;;;;;;35.88;13.15;;;2.10;99.90;;;;;;5050149;28;20122;-76
2023/01/27 03:04:39;;;;;;;35.47;13.32;;;2.10;99.90;;;;;;5015511;28;20052;-76
2023/01/27 03:07:05;;;;;;;33.50;14.00;;;2.20;99.90;;;;;;5019955;28;20451;-77
2023/01/27 03:09:31;;;;;;;40.25;14.23;;;2.30;99.90;;;;;;5053779;28;20079;-76
2023/01/27 03:20:10;;;;;;;35.92;13.75;;;2.30;99.90;;;;;;5054566;28;20060;-77
2023/01/27 03:22:36;;;;;;;34.05;13.35;;;2.30;99.90;;;;;;5040580;28;20076;-76
2023/01/27 03:25:02;;;;;;;36.45;14.07;;;2.30;99.90;;;;;;5036188;28;20041;-75
2023/01/27 03:27:28;;;;;;;45.33;13.75;;;2.30;99.90;;;;;;5054005;28;20182;-76
2023/01/27 03:29:54;;;;;;;42.78;15.23;;;2.30;99.90;;;;;;5048748;28;20516;-76
2023/01/27 03:32:20;;;;;;;31.58;12.43;;;2.40;99.90;;;;;;5052050;28;20083;-77
2023/01/27 03:34:46;;;;;;;35.70;13.93;;;2.40;99.90;;;;;;5047984;28;20044;-76
2023/01/27 03:48:11;;;;;;;37.08;13.77;;;2.50;99.90;;;;;;5026640;28;20077;-78
2023/01/27 03:50:40;;;;;;;38.33;14.43;;;2.40;99.90;;;;;;5046513;28;20529;-76
2023/01/27 03:53:06;;;;;;;30.20;13.35;;;2.40;99.90;;;;;;5062381;28;20337;-77
2023/01/27 03:55:33;;;;;;;37.70;14.43;;;2.50;99.90;;;;;;5065387;28;20048;-76
2023/01/27 03:58:18;;;;;;;32.13;13.23;;;2.50;99.90;;;;;;5013656;28;20044;-76
2023/01/27 04:00:44;;;;;;;36.58;13.80;;;2.50;99.90;;;;;;5022906;28;20044;-77
2023/01/27 04:08:42;;;;;;;36.42;13.73;;;2.50;99.90;;;;;;5046050;28;20080;-76
2023/01/27 04:13:52;;;;;;;29.92;12.23;;;2.50;99.90;;;;;;5036668;28;20159;-75
2023/01/27 04:16:18;;;;;;;45.67;15.95;;;2.50;99.90;;;;;;5051769;28;20131;-75
2023/01/27 04:18:45;;;;;;;29.00;12.60;;;2.50;99.90;;;;;;5057895;28;20045;-75
2023/01/27 04:21:12;;;;;;;30.02;12.60;;;2.50;99.90;;;;;;5028410;28;20045;-76
2023/01/27 04:23:38;;;;;;;23.58;11.38;;;2.40;99.90;;;;;;5037162;28;20402;-76
2023/01/27 04:26:04;;;;;;;25.25;11.98;;;2.40;99.90;;;;;;5056242;28;20102;-76
2023/01/27 04:28:30;;;;;;;29.52;12.05;;;2.50;99.90;;;;;;5046689;28;20041;-76
2023/01/27 04:30:57;;;;;;;24.40;9.82;;;2.50;99.90;;;;;;5030083;28;20037;-76
2023/01/27 04:33:23;;;;;;;24.65;10.18;;;2.50;99.90;;;;;;5055772;28;20048;-76
2023/01/27 04:35:49;;;;;;;30.08;12.07;;;2.50;99.90;;;;;;5072690;28;20106;-76
2023/01/27 04:38:15;;;;;;;32.75;12.80;;;2.50;99.90;;;;;;5049943;28;20041;-77
2023/01/27 04:40:41;;;;;;;25.95;11.93;;;2.50;99.90;;;;;;5055941;28;20048;-76
2023/01/27 04:43:07;;;;;;;41.65;13.30;;;2.50;99.90;;;;;;5036911;28;20343;-76
2023/01/27 04:45:33;;;;;;;19.73;8.85;;;2.50;99.90;;;;;;5056258;28;20099;-75
2023/01/27 04:47:58;;;;;;;22.73;10.23;;;2.60;99.90;;;;;;5071082;28;20496;-76
2023/01/27 04:50:24;;;;;;;23.98;10.18;;;2.70;99.90;;;;;;5040748;28;20056;-75
2023/01/27 04:52:50;;;;;;;19.67;9.32;;;2.60;99.90;;;;;;5016698;28;20466;-76
2023/01/27 04:55:16;;;;;;;30.35;11.55;;;2.60;99.90;;;;;;5035260;28;20412;-75
2023/01/27 04:57:41;;;;;;;20.58;8.80;;;2.60;99.90;;;;;;5020020;28;20685;-76
2023/01/27 05:00:09;;;;;;;25.40;10.32;;;2.70;99.90;;;;;;5038815;28;20040;-76
2023/01/27 05:02:35;;;;;;;34.70;12.00;;;2.60;99.90;;;;;;5052672;28;20061;-76
2023/01/27 05:05:03;;;;;;;21.33;10.35;;;2.60;99.90;;;;;;5035943;28;20846;-76
2023/01/27 05:07:30;;;;;;;25.10;11.20;;;2.50;99.90;;;;;;5032463;28;20120;-76
2023/01/27 05:09:55;;;;;;;25.95;10.32;;;2.60;99.90;;;;;;5042947;28;20826;-76
2023/01/27 05:12:21;;;;;;;24.40;10.38;;;2.50;99.90;;;;;;5088782;28;20124;-76
2023/01/27 05:14:47;;;;;;;19.50;9.32;;;2.60;99.90;;;;;;5049721;28;20041;-76
2023/01/27 05:17:12;;;;;;;20.67;9.20;;;2.60;99.90;;;;;;5047996;28;20045;-76
2023/01/27 05:19:38;;;;;;;25.10;10.57;;;2.60;99.90;;;;;;5056166;28;20051;-75
2023/01/27 05:22:04;;;;;;;20.98;10.40;;;2.60;99.90;;;;;;5044234;28;20123;-76
2023/01/27 05:24:30;;;;;;;26.70;10.85;;;2.50;99.90;;;;;;5067828;28;20087;-76
2023/01/27 05:26:56;;;;;;;23.63;10.05;;;2.60;99.90;;;;;;5069053;28;20816;-76
2023/01/27 05:29:22;;;;;;;23.80;10.75;;;2.60;99.90;;;;;;5071297;28;20040;-75
2023/01/27 05:31:48;;;;;;;20.70;10.25;;;2.70;99.90;;;;;;5055041;28;20393;-76
2023/01/27 05:34:15;;;;;;;19.05;8.98;;;2.60;99.90;;;;;;5047289;28;20131;-76
2023/01/27 05:36:41;;;;;;;54.08;14.77;;;2.60;99.90;;;;;;5033273;28;20187;-76
2023/01/27 05:39:09;;;;;;;22.15;10.00;;;2.60;99.90;;;;;;5054868;28;20532;-76
2023/01/27 05:41:34;;;;;;;16.65;8.30;;;2.60;99.90;;;;;;5071287;28;20045;-75
2023/01/27 05:44:00;;;;;;;18.05;8.98;;;2.60;99.90;;;;;;5046262;28;20041;-76
2023/01/27 05:46:28;;;;;;;22.23;9.27;;;2.60;99.90;;;;;;5027335;28;20052;-76
2023/01/27 05:48:55;;;;;;;16.85;8.77;;;2.70;99.90;;;;;;5021668;28;20045;-76
2023/01/27 05:51:25;;;;;;;19.45;8.32;;;2.60;99.90;;;;;;5021855;28;20041;-76
2023/01/27 05:53:51;;;;;;;26.63;10.57;;;2.80;99.90;;;;;;5004994;28;20336;-76
2023/01/27 05:56:17;;;;;;;14.52;7.20;;;2.60;99.90;;;;;;5051081;28;20045;-76
2023/01/27 05:58:43;;;;;;;15.93;7.80;;;2.60;99.90;;;;;;5062981;28;20761;-76
2023/01/27 06:01:14;;;;;;;15.60;7.75;;;2.70;99.90;;;;;;5064193;28;20120;-76
2023/01/27 06:03:41;;;;;;;14.02;6.80;;;2.70;99.90;;;;;;5054254;28;20072;-75
2023/01/27 06:06:07;;;;;;;12.38;6.10;;;2.80;99.90;;;;;;5048444;28;20038;-76
2023/01/27 06:08:32;;;;;;;10.93;5.47;;;2.90;99.90;;;;;;5063815;28;20041;-75
2023/01/27 06:10:58;;;;;;;10.00;5.32;;;2.90;99.90;;;;;;5032269;28;20047;-76
2023/01/27 06:13:24;;;;;;;12.52;5.75;;;2.90;99.90;;;;;;5004198;28;20044;-76
2023/01/27 06:15:50;;;;;;;8.90;5.05;;;3.10;99.90;;;;;;5051288;28;20135;-75
2023/01/27 06:18:17;;;;;;;12.70;5.93;;;3.00;99.90;;;;;;5054077;28;20110;-75
2023/01/27 06:20:43;;;;;;;7.50;4.28;;;3.00;99.90;;;;;;5001645;28;20042;-75
2023/01/27 06:23:09;;;;;;;8.82;5.05;;;3.10;99.90;;;;;;5043926;28;20049;-75
2023/01/27 06:25:41;;;;;;;8.70;4.53;;;3.10;99.90;;;;;;5081014;28;20056;-75
2023/01/27 06:28:07;;;;;;;6.78;4.07;;;3.10;99.90;;;;;;5007018;28;20037;-76
2023/01/27 06:30:34;;;;;;;9.30;4.82;;;3.20;99.90;;;;;;5046003;28;20042;-76
2023/01/27 06:32:59;;;;;;;6.60;4.10;;;3.20;99.90;;;;;;5050731;28;20133;-76
2023/01/27 06:35:25;;;;;;;6.80;4.07;;;3.30;99.90;;;;;;5067564;28;20761;-75
2023/01/27 06:37:51;;;;;;;5.60;2.92;;;3.20;99.90;;;;;;5069503;28;20102;-75
2023/01/27 06:40:17;;;;;;;6.10;3.03;;;3.20;99.90;;;;;;5036893;28;20056;-75
2023/01/27 06:42:44;;;;;;;5.20;2.75;;;3.20;99.90;;;;;;5000142;28;20110;-74
2023/01/27 06:45:11;;;;;;;3.75;2.60;;;3.20;99.90;;;;;;5032140;28;20052;-75
2023/01/27 06:47:39;;;;;;;5.05;2.75;;;3.30;99.90;;;;;;5018933;28;20041;-75
2023/01/27 06:50:07;;;;;;;4.78;2.45;;;3.30;99.90;;;;;;5038366;28;20425;-76
2023/01/27 06:52:32;;;;;;;4.97;2.42;;;3.30;99.90;;;;;;5069857;28;20053;-76
2023/01/27 06:54:58;;;;;;;3.45;2.28;;;3.30;99.90;;;;;;5033016;28;20500;-76
2023/01/27 06:57:24;;;;;;;3.35;2.08;;;3.30;99.90;;;;;;5054439;28;20038;-75
2023/01/27 06:59:50;;;;;;;4.20;1.85;;;3.30;99.90;;;;;;5054354;28;20053;-75
2023/01/27 07:02:15;;;;;;;4.65;2.28;;;3.30;99.90;;;;;;5035617;28;20212;-75
2023/01/27 07:04:41;;;;;;;4.40;2.10;;;3.40;99.90;;;;;;5050591;28;20041;-75
2023/01/27 07:07:07;;;;;;;3.75;2.20;;;3.30;99.90;;;;;;5048684;28;20131;-75
2023/01/27 07:09:33;;;;;;;4.20;2.38;;;3.30;99.90;;;;;;5069439;28;20052;-75
2023/01/27 07:11:59;;;;;;;3.90;2.33;;;3.30;99.90;;;;;;5036016;28;20072;-75
2023/01/27 07:14:24;;;;;;;4.18;2.60;;;3.40;99.90;;;;;;5034279;28;20152;-75
2023/01/27 07:16:50;;;;;;;4.15;1.95;;;3.40;99.90;;;;;;5065615;28;20462;-75
2023/01/27 07:19:16;;;;;;;3.08;1.67;;;3.40;99.90;;;;;;5041526;28;20045;-75
2023/01/27 07:21:42;;;;;;;2.95;1.90;;;3.40;99.90;;;;;;5053026;28;20044;-75
2023/01/27 07:24:08;;;;;;;4.15;2.53;;;3.30;99.90;;;;;;5029945;28;20041;-75
2023/01/27 07:26:34;;;;;;;2.70;2.00;;;3.40;99.90;;;;;;5020109;28;20477;-75
2023/01/27 07:29:00;;;;;;;2.80;1.80;;;3.40;99.90;;;;;;5043755;28;20052;-75
2023/01/27 07:31:25;;;;;;;3.95;2.40;;;3.40;99.90;;;;;;5013690;28;20496;-75
2023/01/27 07:33:52;;;;;;;3.97;2.35;;;3.40;99.90;;;;;;5004028;28;20052;-76
2023/01/27 07:36:18;;;;;;;2.65;1.88;;;3.40;99.90;;;;;;5051927;28;20049;-75
2023/01/27 07:38:44;;;;;;;3.53;2.25;;;3.40;99.90;;;;;;5036265;28;20045;-75
2023/01/27 07:41:10;;;;;;;3.80;2.67;;;3.40;99.90;;;;;;5033511;28;20056;-76
2023/01/27 07:43:35;;;;;;;3.80;2.40;;;3.40;99.90;;;;;;5070959;28;20623;-75
2023/01/27 07:46:01;;;;;;;5.43;2.85;;;3.40;99.90;;;;;;5051589;28;20072;-75
2023/01/27 07:48:27;;;;;;;4.15;2.65;;;3.40;99.90;;;;;;5046193;28;20139;-75
2023/01/27 07:50:53;;;;;;;8.80;4.00;;;3.40;99.90;;;;;;5059400;28;20041;-77
2023/01/27 07:53:19;;;;;;;4.78;2.95;;;3.40;99.90;;;;;;5061127;28;20037;-75
2023/01/27 07:55:44;;;;;;;6.50;3.35;;;3.40;99.90;;;;;;5026575;28;20056;-75
2023/01/27 07:58:10;;;;;;;4.43;2.97;;;3.50;99.90;;;;;;5052827;28;20052;-75
2023/01/27 08:00:36;;;;;;;5.32;3.13;;;3.50;99.90;;;;;;5032084;28;20381;-75
2023/01/27 08:03:02;;;;;;;6.32;3.70;;;3.50;99.90;;;;;;5047550;28;20828;-75
2023/01/27 08:05:28;;;;;;;7.70;3.35;;;3.50;99.90;;;;;;5034816;28;20115;-75
2023/01/27 08:07:54;;;;;;;7.38;3.22;;;3.50;99.90;;;;;;5019891;28;20036;-74
2023/01/27 08:10:20;;;;;;;8.80;3.60;;;3.50;99.90;;;;;;5026902;28;20488;-75
2023/01/27 08:12:46;;;;;;;4.80;3.25;;;3.50;99.90;;;;;;5064613;28;20041;-75
2023/01/27 08:15:12;;;;;;;4.47;3.17;;;3.50;99.90;;;;;;5036655;28;20453;-76
2023/01/27 08:17:37;;;;;;;5.20;3.35;;;3.50;99.90;;;;;;5066375;28;20147;-76
2023/01/27 08:20:04;;;;;;;8.63;3.72;;;3.50;99.90;;;;;;5053149;28;20120;-77
2023/01/27 08:22:30;;;;;;;9.98;4.13;;;3.50;99.90;;;;;;5050317;28;20207;-78
2023/01/27 08:24:55;;;;;;;6.25;3.80;;;3.50;99.90;;;;;;5042656;28;20049;-78
2023/01/27 08:27:21;;;;;;;7.68;3.90;;;3.60;99.90;;;;;;5014266;28;20095;-78
2023/01/27 08:29:47;;;;;;;7.00;4.45;;;3.50;99.90;;;;;;5044090;28;20854;-78
2023/01/27 08:32:13;;;;;;;6.22;3.65;;;3.50;99.90;;;;;;5062761;28;20110;-78
2023/01/27 08:34:39;;;;;;;5.53;3.20;;;3.50;99.90;;;;;;5034064;28;20041;-78
2023/01/27 08:37:04;;;;;;;6.82;3.42;;;3.60;99.90;;;;;;5007935;28;20059;-78
2023/01/27 08:39:30;;;;;;;9.50;3.63;;;3.60;99.90;;;;;;5044400;28;20103;-77
2023/01/27 08:41:56;;;;;;;7.95;3.08;;;3.50;99.90;;;;;;5049669;28;20091;-78
2023/01/27 08:44:23;;;;;;;4.93;3.08;;;3.60;99.90;;;;;;4998270;28;20470;-78
2023/01/27 08:46:49;;;;;;;6.15;3.42;;;3.60;99.90;;;;;;5054104;28;20351;-78
2023/01/27 08:49:15;;;;;;;7.20;3.08;;;3.60;99.90;;;;;;5035750;28;20080;-78
2023/01/27 08:51:41;;;;;;;3.75;2.42;;;3.60;99.90;;;;;;5034106;28;20041;-78
2023/01/27 08:54:07;;;;;;;5.78;2.50;;;3.60;99.90;;;;;;5041769;28;20135;-78
2023/01/27 08:56:33;;;;;;;5.30;2.40;;;3.60;99.90;;;;;;5039153;28;20158;-78
2023/01/27 08:58:59;;;;;;;4.00;2.45;;;3.60;99.90;;;;;;5016255;28;20398;-78
2023/01/27 09:01:24;;;;;;;7.97;2.88;;;3.60;99.90;;;;;;5016773;28;20215;-78
2023/01/27 09:03:50;;;;;;;4.97;2.58;;;3.60;99.90;;;;;;5047699;28;20513;-78
2023/01/27 09:06:16;;;;;;;5.18;2.72;;;3.70;99.90;;;;;;5032136;28;20033;-78
2023/01/27 09:08:42;;;;;;;4.57;2.50;;;3.70;99.90;;;;;;5064797;28;20045;-78
2023/01/27 09:11:13;;;;;;;6.63;2.63;;;3.70;99.90;;;;;;5078749;28;20041;-78
2023/01/27 09:13:39;;;;;;;7.28;2.42;;;3.70;99.90;;;;;;5005290;28;20416;-77
2023/01/27 09:16:05;;;;;;;5.07;2.40;;;3.80;99.90;;;;;;5005455;28;20052;-78
2023/01/27 09:18:31;;;;;;;5.63;2.60;;;3.70;99.90;;;;;;5046513;28;20057;-78
2023/01/27 09:20:57;;;;;;;4.82;2.53;;;3.70;99.90;;;;;;5049177;28;20446;-79
2023/01/27 09:23:23;;;;;;;8.52;2.78;;;3.70;99.90;;;;;;5036792;28;20120;-77
2023/01/27 09:25:49;;;;;;;3.85;2.28;;;3.70;99.90;;;;;;5068091;28;20076;-77
2023/01/27 09:28:18;;;;;;;4.78;2.78;;;3.70;99.90;;;;;;5065723;28;20048;-77
2023/01/27 09:30:47;;;;;;;4.60;2.60;;;3.70;99.90;;;;;;5054106;28;20047;-77
2023/01/27 09:33:13;;;;;;;4.03;2.15;;;3.70;99.90;;;;;;5047598;28;20132;-78
2023/01/27 09:35:44;;;;;;;7.45;2.47;;;3.70;99.90;;;;;;5037225;28;20914;-78
2023/01/27 09:38:12;;;;;;;5.97;2.40;;;3.70;99.90;;;;;;5070776;28;20063;-78
2023/01/27 09:40:53;;;;;;;3.93;2.13;;;3.70;99.90;;;;;;5053907;28;20048;-78
2023/01/27 09:43:37;;;;;;;3.40;2.10;;;3.60;99.90;;;;;;5063317;28;20465;-77
2023/01/27 09:46:17;;;;;;;5.80;2.15;;;3.70;99.90;;;;;;5067321;28;20071;-78
2023/01/27 09:48:52;;;;;;;4.57;2.40;;;3.70;99.90;;;;;;5066769;28;20103;-77
2023/01/27 09:51:41;;;;;;;7.35;2.42;;;3.70;99.90;;;;;;5056085;28;20037;-78
2023/01/27 09:54:12;;;;;;;4.05;2.40;;;3.70;99.90;;;;;;5076700;28;20049;-77
2023/01/27 09:56:39;;;;;;;7.57;1.83;;;3.70;99.90;;;;;;5035629;28;20044;-77
2023/01/27 09:59:22;;;;;;;4.10;2.30;;;3.70;99.90;;;;;;5079932;28;20136;-76
2023/01/27 10:02:12;;;;;;;4.78;2.20;;;3.70;99.90;;;;;;5052832;28;20088;-77
2023/01/27 10:04:55;;;;;;;4.25;1.92;;;3.70;99.90;;;;;;5081001;28;20048;-78
2023/01/27 10:07:43;;;;;;;10.25;2.47;;;3.70;99.90;;;;;;5026349;28;20116;-77
2023/01/27 10:10:58;;;;;;;3.97;1.85;;;3.70;99.90;;;;;;5049940;28;20037;-78
2023/01/27 10:13:31;;;;;;;4.00;1.85;;;3.70;99.90;;;;;;5036847;28;20042;-77
2023/01/27 10:16:31;;;;;;;6.30;1.80;;;3.70;99.90;;;;;;5037762;28;20059;-78
2023/01/27 10:19:18;;;;;;;3.78;2.10;;;3.70;99.90;;;;;;5036475;28;20045;-77
2023/01/27 10:21:56;;;;;;;3.50;2.17;;;3.70;99.90;;;;;;5054835;28;20093;-77
2023/01/27 10:24:59;;;;;;;3.17;1.80;;;3.70;99.90;;;;;;5052569;28;20483;-77
2023/01/27 10:27:31;;;;;;;6.82;1.80;;;3.70;99.90;;;;;;5050577;28;20136;-77
2023/01/27 10:30:14;;;;;;;3.53;2.00;;;3.70;99.90;;;;;;5014311;28;20076;-79
2023/01/27 10:32:45;;;;;;;6.18;1.70;;;3.70;99.90;;;;;;5011105;28;20048;-78
2023/01/27 10:35:38;;;;;;;3.67;1.70;;;3.70;99.90;;;;;;5005237;28;20041;-78
2023/01/27 10:38:42;;;;;;;3.72;1.80;;;3.70;99.90;;;;;;5021301;28;20473;-77
2023/01/27 10:41:59;;;;;;;2.42;1.58;;;3.70;99.90;;;;;;5052473;28;20084;-76
2023/01/27 10:44:40;;;;;;;3.78;1.70;;;3.70;99.90;;;;;;5026825;28;20144;-77
2023/01/27 10:47:18;;;;;;;1.85;1.30;;;3.80;99.90;;;;;;5054896;28;20053;-77
2023/01/27 10:50:15;;;;;;;5.10;1.60;;;3.80;99.90;;;;;;5054818;28;20087;-76
2023/01/27 10:52:45;;;;;;;3.97;1.60;;;3.70;99.90;;;;;;5054994;28;20052;-76
2023/01/27 10:55:20;;;;;;;5.47;1.63;;;3.80;99.90;;;;;;5049204;28;20569;-77
2023/01/27 10:57:54;;;;;;;4.45;1.67;;;3.80;99.90;;;;;;5019820;28;20523;-78
2023/01/27 11:00:43;;;;;;;8.32;2.28;;;3.80;99.90;;;;;;5054283;28;20470;-77
2023/01/27 11:03:34;;;;;;;4.95;1.75;;;3.80;99.90;;;;;;5089347;28;20110;-77
2023/01/27 11:06:14;;;;;;;3.17;2.08;;;3.80;99.90;;;;;;5038096;28;20067;-76
2023/01/27 11:08:43;;;;;;;3.63;2.13;;;3.80;99.90;;;;;;5067044;28;20041;-77
2023/01/27 11:14:03;;;;;;;4.88;1.98;;;3.80;99.90;;;;;;5022827;28;20041;-77
2023/01/27 11:16:34;;;;;;;3.75;1.90;;;3.80;99.90;;;;;;5020800;28;20063;-76
2023/01/27 11:19:10;;;;;;;3.08;1.50;;;3.80;99.90;;;;;;5002883;28;20490;-75
2023/01/27 11:21:36;;;;;;;4.28;1.52;;;3.80;99.90;;;;;;5052999;28;20052;-78
2023/01/27 11:24:13;;;;;;;3.38;1.38;;;3.80;99.90;;;;;;5054023;28;20658;-77
2023/01/27 11:26:40;;;;;;;3.70;1.40;;;3.80;99.90;;;;;;5057323;28;20047;-78
2023/01/27 11:32:07;;;;;;;4.03;1.38;;;3.70;99.90;;;;;;4741333;26;20056;-77
2023/01/27 11:34:46;;;;;;;8.60;1.90;;;3.70;99.90;;;;;;5031622;28;20037;-78
2023/01/27 11:37:19;;;;;;;5.95;1.55;;;3.70;99.90;;;;;;5036816;28;20041;-78
2023/01/27 11:39:46;;;;;;;4.13;1.52;;;3.70;99.90;;;;;;5038450;28;20080;-77
2023/01/27 11:42:12;;;;;;;4.15;1.50;;;3.70;99.90;;;;;;5030667;28;20049;-77
2023/01/27 11:44:37;;;;;;;4.40;1.58;;;3.70;99.90;;;;;;5028540;28;20725;-77
2023/01/27 11:47:04;;;;;;;3.22;1.73;;;3.70;99.90;;;;;;5035315;28;20814;-76
2023/01/27 11:49:33;;;;;;;2.85;1.52;;;3.70;99.90;;;;;;5015110;28;20116;-76
2023/01/27 11:52:12;;;;;;;3.78;1.50;;;3.70;99.90;;;;;;5016833;28;20092;-75
2023/01/27 11:54:47;;;;;;;2.47;1.30;;;3.70;99.90;;;;;;5043589;28;20043;-75
2023/01/27 11:57:23;;;;;;;5.22;1.85;;;3.70;99.90;;;;;;5030775;28;20124;-75
2023/01/27 12:00:18;;;;;;;4.53;1.60;;;3.60;99.90;;;;;;5017195;28;20053;-78
2023/01/27 12:02:46;;;;;;;5.00;1.50;;;3.70;99.90;;;;;;5027492;28;20426;-77
2023/01/27 12:05:16;;;;;;;5.40;1.40;;;3.60;99.90;;;;;;5048409;28;20476;-77
2023/01/27 12:07:53;;;;;;;6.30;1.70;;;3.60;99.90;;;;;;5053109;28;20055;-76
2023/01/27 12:10:20;;;;;;;5.55;1.33;;;3.60;99.90;;;;;;5018465;28;20044;-77
2023/01/27 12:12:46;;;;;;;3.30;1.75;;;3.70;99.90;;;;;;5077326;28;20051;-76
2023/01/27 12:15:14;;;;;;;4.05;1.50;;;3.60;99.90;;;;;;5066337;28;20534;-76
2023/01/27 12:17:42;;;;;;;3.30;1.60;;;3.60;99.90;;;;;;5032004;28;20041;-76
2023/01/27 12:20:20;;;;;;;5.60;1.73;;;3.60;99.90;;;;;;5018013;28;20060;-76
2023/01/27 12:22:48;;;;;;;4.30;1.38;;;3.50;99.90;;;;;;5049415;28;20051;-77
2023/01/27 12:25:26;;;;;;;4.38;1.25;;;3.50;99.90;;;;;;5035701;28;20048;-78
2023/01/27 12:27:56;;;;;;;3.53;1.05;;;3.50;99.90;;;;;;5020491;28;20822;-78
2023/01/27 12:30:32;;;;;;;5.28;1.52;;;3.50;99.90;;;;;;5016481;28;20064;-78
2023/01/27 12:32:58;;;;;;;9.15;3.70;;;3.50;99.90;;;;;;5018651;28;20049;-78
2023/01/27 12:35:33;;;;;;;6.18;1.52;;;3.60;99.90;;;;;;5018663;28;20049;-78
2023/01/27 12:38:07;;;;;;;4.55;1.30;;;3.60;99.90;;;;;;5035928;28;20407;-78
2023/01/27 12:40:33;;;;;;;4.88;1.08;;;3.60;99.90;;;;;;5033846;28;20049;-78
2023/01/27 12:43:20;;;;;;;3.08;1.40;;;3.70;99.90;;;;;;5016822;28;20053;-76
2023/01/27 12:46:24;;;;;;;7.35;1.30;;;3.60;99.90;;;;;;5059142;28;20037;-77
2023/01/27 12:49:13;;;;;;;3.40;1.55;;;3.70;99.90;;;;;;5029674;28;20404;-77
2023/01/27 12:51:43;;;;;;;3.55;0.90;;;3.70;99.90;;;;;;5040118;28;20126;-76
2023/01/27 12:54:26;;;;;;;4.28;1.30;;;3.70;99.90;;;;;;5023753;28;20045;-77
2023/01/27 12:57:10;;;;;;;4.03;1.70;;;3.60;99.90;;;;;;5051704;28;20055;-77
2023/01/27 12:59:51;;;;;;;7.28;1.63;;;3.60;99.90;;;;;;5039194;28;20045;-77
2023/01/27 13:02:21;;;;;;;4.70;1.63;;;3.60;99.90;;;;;;5049704;28;20052;-76
2023/01/27 13:04:58;;;;;;;6.47;1.55;;;3.50;99.90;;;;;;5021989;28;20156;-75
2023/01/27 13:07:35;;;;;;;3.65;1.70;;;3.50;99.90;;;;;;5022966;28;20131;-76
2023/01/27 13:10:03;;;;;;;5.70;1.65;;;3.50;99.90;;;;;;5039411;28;20060;-78
2023/01/27 13:12:49;;;;;;;5.97;1.60;;;3.50;99.90;;;;;;5001229;28;20469;-77
2023/01/27 13:15:20;;;;;;;7.35;1.48;;;3.50;99.90;;;;;;5054207;28;20198;-76
2023/01/27 13:17:47;;;;;;;3.40;1.40;;;3.50;99.90;;;;;;5023179;28;20040;-76
2023/01/27 13:20:20;;;;;;;2.75;1.00;;;3.50;99.90;;;;;;5021910;28;20057;-76
2023/01/27 13:23:07;;;;;;;5.22;1.50;;;3.50;99.90;;;;;;5054965;28;20106;-76
2023/01/27 13:25:47;;;;;;;7.65;1.90;;;3.50;99.90;;;;;;5037347;28;20044;-77
2023/01/27 13:28:40;;;;;;;3.38;1.40;;;3.60;99.90;;;;;;5039487;28;20439;-76
2023/01/27 13:31:09;;;;;;;4.13;1.67;;;3.60;99.90;;;;;;5003811;28;20841;-77
2023/01/27 13:33:46;;;;;;;7.30;1.67;;;3.50;99.90;;;;;;5022378;28;20464;-75
2023/01/27 13:36:38;;;;;;;5.90;1.57;;;3.50;99.90;;;;;;5038928;28;20045;-76
2023/01/27 13:39:10;;;;;;;4.90;1.60;;;3.40;99.90;;;;;;5022326;28;20283;-77
2023/01/27 13:41:42;;;;;;;5.82;1.70;;;3.40;99.90;;;;;;5005458;28;20048;-76
2023/01/27 13:44:20;;;;;;;6.03;1.67;;;3.40;99.90;;;;;;5052998;28;20083;-76